Time;durP1;ratioP1;P1;durP2;ratioP2;P2;SDS_P1;SDS_P2;PMS_P1;PMS_P2;Temp;Humidity;BMP_temperature;BMP_pressure;BME280_temperature;BME280_humidity;BME280_pressure;Samples;Min_cycle;Max_cycle;Signal;HPM_P1;HPM_P2
2023/05/11 00:02:14;;;;;;;10.63;6.25;;;11.20;99.90;;;;;;4981999;28;20098;-81
2023/05/11 00:04:40;;;;;;;9.43;6.38;;;11.30;99.90;;;;;;4985528;28;20050;-81
2023/05/11 00:07:05;;;;;;;11.43;6.57;;;11.20;99.90;;;;;;4984071;28;20421;-81
2023/05/11 00:09:32;;;;;;;13.57;7.18;;;11.20;99.90;;;;;;5002092;28;20042;-82
2023/05/11 00:11:58;;;;;;;11.05;7.25;;;11.50;99.90;;;;;;4985171;28;20056;-82
2023/05/11 00:14:23;;;;;;;11.98;6.97;;;11.10;99.90;;;;;;4995751;28;20554;-82
2023/05/11 00:16:49;;;;;;;12.40;7.45;;;11.10;99.90;;;;;;5000522;28;20132;-83
2023/05/11 00:19:15;;;;;;;23.90;7.80;;;11.10;99.90;;;;;;4998552;28;20578;-81
2023/05/11 00:21:40;;;;;;;15.80;8.40;;;11.30;99.90;;;;;;5003387;28;20042;-82
2023/05/11 00:24:07;;;;;;;12.23;7.95;;;11.00;99.90;;;;;;4995687;28;20038;-82
2023/05/11 00:26:35;;;;;;;22.85;8.55;;;11.10;99.90;;;;;;4984144;28;20050;-82
2023/05/11 00:29:02;;;;;;;12.85;8.40;;;11.00;99.90;;;;;;4997781;28;20038;-82
2023/05/11 00:31:27;;;;;;;17.80;9.13;;;11.10;99.90;;;;;;5000049;28;20100;-81
2023/05/11 00:33:53;;;;;;;15.57;8.75;;;11.30;99.90;;;;;;4996086;28;20041;-81
2023/05/11 00:36:20;;;;;;;16.60;8.07;;;11.10;99.90;;;;;;4995618;28;20406;-81
2023/05/11 00:38:45;;;;;;;16.65;9.40;;;11.10;99.90;;;;;;4996808;28;20049;-81
2023/05/11 00:41:11;;;;;;;14.43;9.43;;;11.10;99.90;;;;;;4982082;28;20049;-81
2023/05/11 00:43:37;;;;;;;16.98;9.68;;;11.10;99.90;;;;;;5003034;28;20096;-82
2023/05/11 00:46:03;;;;;;;14.00;9.27;;;11.10;99.90;;;;;;4997423;28;20081;-81
2023/05/11 00:48:29;;;;;;;16.30;9.38;;;11.10;99.90;;;;;;4996330;28;20053;-82
2023/05/11 00:50:56;;;;;;;22.50;9.32;;;11.10;99.90;;;;;;4997953;28;20046;-82
2023/05/11 00:53:22;;;;;;;21.42;9.55;;;11.10;99.90;;;;;;4982824;28;20085;-82
2023/05/11 00:55:47;;;;;;;16.13;10.00;;;11.10;99.90;;;;;;4999247;28;20487;-81
2023/05/11 00:58:14;;;;;;;13.68;9.00;;;11.10;99.90;;;;;;4998232;28;20095;-81
2023/05/11 01:00:40;;;;;;;15.63;9.30;;;11.10;99.90;;;;;;4980386;28;21605;-81
2023/05/11 01:03:06;;;;;;;13.52;9.02;;;11.10;99.90;;;;;;4999757;28;20041;-82
2023/05/11 01:05:44;;;;;;;14.00;9.07;;;11.10;99.90;;;;;;4995890;28;20137;-82
2023/05/11 01:08:45;;;;;;;14.85;8.57;;;11.10;99.90;;;;;;4994761;28;20061;-76
2023/05/11 01:11:37;;;;;;;14.17;9.17;;;11.10;99.90;;;;;;4979290;28;20045;-76
2023/05/11 01:14:07;;;;;;;18.98;8.02;;;11.10;99.90;;;;;;4995740;28;20051;-76
2023/05/11 01:16:36;;;;;;;16.90;9.00;;;11.00;99.90;;;;;;4996915;28;20045;-76
2023/05/11 01:19:26;;;;;;;15.80;8.75;;;11.00;99.90;;;;;;4982908;28;20470;-76
2023/05/11 01:21:52;;;;;;;18.42;8.38;;;11.00;99.90;;;;;;4995908;28;20096;-76
2023/05/11 01:24:33;;;;;;;15.80;9.07;;;11.30;99.90;;;;;;4995894;28;20836;-76
2023/05/11 01:27:20;;;;;;;13.98;9.23;;;11.00;99.90;;;;;;4982803;28;20054;-75
2023/05/11 01:29:52;;;;;;;16.98;9.88;;;11.00;99.90;;;;;;4999938;28;20038;-77
2023/05/11 01:32:31;;;;;;;18.05;8.75;;;11.00;99.90;;;;;;4996409;28;20054;-77
2023/05/11 01:35:06;;;;;;;36.30;10.00;;;11.00;99.90;;;;;;4997270;28;20038;-76
2023/05/11 01:37:33;;;;;;;14.80;10.20;;;11.00;99.90;;;;;;4995031;28;20139;-76
2023/05/11 01:40:06;;;;;;;16.30;9.27;;;11.00;99.90;;;;;;4978193;28;20065;-77
2023/05/11 01:42:41;;;;;;;13.25;8.95;;;11.00;99.90;;;;;;4980144;28;20057;-77
2023/05/11 01:45:11;;;;;;;17.63;8.93;;;11.00;99.90;;;;;;4998325;28;20048;-77
2023/05/11 01:47:40;;;;;;;16.67;9.02;;;11.00;99.90;;;;;;4979266;28;20049;-76
2023/05/11 01:50:07;;;;;;;21.70;8.52;;;11.00;99.90;;;;;;4997029;28;20527;-77
2023/05/11 01:52:35;;;;;;;28.60;9.23;;;11.00;99.90;;;;;;5003022;28;20069;-77
2023/05/11 01:55:04;;;;;;;17.20;8.82;;;11.00;99.90;;;;;;4995865;28;20046;-77
2023/05/11 01:57:31;;;;;;;35.45;8.88;;;10.90;99.90;;;;;;4985209;28;20490;-77
2023/05/11 01:59:58;;;;;;;12.70;8.52;;;11.00;99.90;;;;;;5000862;28;20054;-77
2023/05/11 02:02:25;;;;;;;24.92;8.23;;;10.90;99.90;;;;;;4999267;28;20061;-77
2023/05/11 02:04:53;;;;;;;29.35;8.48;;;11.00;99.90;;;;;;5000704;28;20073;-76
2023/05/11 02:07:20;;;;;;;11.82;7.30;;;11.00;99.90;;;;;;5001551;28;20458;-77
2023/05/11 02:09:47;;;;;;;12.50;7.65;;;10.90;99.90;;;;;;5003459;28;20038;-77
2023/05/11 02:12:16;;;;;;;14.98;8.00;;;10.90;99.90;;;;;;4988122;28;20128;-77
2023/05/11 02:14:43;;;;;;;12.27;7.15;;;10.90;99.90;;;;;;5001674;28;20054;-77
2023/05/11 02:17:10;;;;;;;11.57;7.57;;;10.90;99.90;;;;;;4998244;28;20057;-77
2023/05/11 02:19:37;;;;;;;14.52;7.50;;;10.90;99.90;;;;;;5002155;28;20331;-77
2023/05/11 02:22:04;;;;;;;11.43;6.93;;;10.90;99.90;;;;;;5000954;28;20046;-77
2023/05/11 02:24:32;;;;;;;12.70;6.97;;;10.80;99.90;;;;;;5001394;28;20058;-77
2023/05/11 02:26:58;;;;;;;13.32;6.95;;;10.80;99.90;;;;;;5003153;28;20084;-77
2023/05/11 02:29:24;;;;;;;16.40;7.80;;;10.80;99.90;;;;;;4999875;28;20409;-77
2023/05/11 02:32:15;;;;;;;13.25;7.93;;;10.80;99.90;;;;;;5000750;28;20047;-76
2023/05/11 02:34:46;;;;;;;26.93;7.80;;;10.80;99.90;;;;;;4998140;28;20046;-76
2023/05/11 02:37:17;;;;;;;45.72;8.90;;;10.80;99.90;;;;;;4999148;28;20765;-76
2023/05/11 02:39:45;;;;;;;15.30;8.50;;;10.80;99.90;;;;;;4997070;28;20108;-76
2023/05/11 02:42:21;;;;;;;59.40;8.38;;;10.70;99.90;;;;;;5000588;28;20372;-76
2023/05/11 02:44:56;;;;;;;26.65;7.20;;;10.70;99.90;;;;;;5005581;28;20057;-76
2023/05/11 02:47:38;;;;;;;34.90;7.35;;;10.70;99.90;;;;;;5000062;28;20459;-77
2023/05/11 02:50:04;;;;;;;;;;;10.70;99.90;;;;;;4990305;28;20518;-77
2023/05/11 02:52:32;;;;;;;68.82;7.75;;;10.70;99.90;;;;;;4997475;28;20451;-77
2023/05/11 02:55:00;;;;;;;12.30;6.15;;;10.60;99.90;;;;;;4982890;28;20061;-81
2023/05/11 02:57:26;;;;;;;11.77;5.97;;;10.70;99.90;;;;;;4997126;28;20128;-82
2023/05/11 02:59:52;;;;;;;11.65;5.70;;;10.70;99.90;;;;;;4985401;28;20148;-83
2023/05/11 03:02:18;;;;;;;37.88;6.05;;;10.70;99.90;;;;;;4985043;28;20034;-82
2023/05/11 03:04:44;;;;;;;61.05;6.35;;;10.70;99.90;;;;;;5000718;28;20062;-82
2023/05/11 03:07:10;;;;;;;52.75;5.63;;;10.60;99.90;;;;;;5000138;28;20777;-83
2023/05/11 03:09:36;;;;;;;13.98;5.45;;;10.60;99.90;;;;;;5001063;28;20049;-83
2023/05/11 03:12:03;;;;;;;11.30;6.75;;;10.60;99.90;;;;;;4999998;28;20062;-82
2023/05/11 03:14:32;;;;;;;25.20;6.25;;;10.60;99.90;;;;;;4986260;28;20188;-81
2023/05/11 03:16:59;;;;;;;9.90;6.28;;;10.60;99.90;;;;;;4985429;28;20137;-82
2023/05/11 03:19:27;;;;;;;12.05;6.82;;;10.60;99.90;;;;;;4982607;28;20057;-82
2023/05/11 03:21:54;;;;;;;26.40;6.93;;;10.60;99.90;;;;;;4998844;28;20038;-82
2023/05/11 03:24:20;;;;;;;22.92;6.68;;;10.60;99.90;;;;;;5001135;28;20077;-82
2023/05/11 03:26:49;;;;;;;13.75;6.30;;;10.60;99.90;;;;;;4980919;28;20120;-83
2023/05/11 03:29:16;;;;;;;13.50;6.07;;;10.60;99.90;;;;;;4998059;28;20149;-82
2023/05/11 03:31:42;;;;;;;49.70;6.60;;;10.60;99.90;;;;;;4998903;28;20491;-82
2023/05/11 03:34:08;;;;;;;37.17;5.78;;;11.00;99.90;;;;;;4981229;28;20040;-82
2023/05/11 03:36:34;;;;;;;30.20;6.07;;;10.60;99.90;;;;;;4985609;28;20050;-82
2023/05/11 03:39:02;;;;;;;16.83;5.93;;;10.60;99.90;;;;;;4982563;28;20525;-82
2023/05/11 03:41:30;;;;;;;14.57;5.82;;;10.60;99.90;;;;;;4996627;28;20041;-83
2023/05/11 03:43:58;;;;;;;25.75;5.43;;;10.60;99.90;;;;;;4998675;28;20734;-82
2023/05/11 03:46:25;;;;;;;14.65;5.40;;;10.60;99.90;;;;;;4998892;28;20057;-83
2023/05/11 03:48:52;;;;;;;34.60;5.18;;;10.60;99.90;;;;;;4981941;28;20108;-82
2023/05/11 03:51:19;;;;;;;30.73;6.05;;;10.60;99.90;;;;;;4986046;28;20144;-82
2023/05/11 03:53:45;;;;;;;22.73;6.22;;;10.60;99.90;;;;;;4998458;28;20093;-83
2023/05/11 03:56:11;;;;;;;31.55;6.00;;;10.60;99.90;;;;;;5003039;28;20124;-82
2023/05/11 03:58:39;;;;;;;57.38;7.10;;;10.60;99.90;;;;;;4980702;28;20121;-83
2023/05/11 04:01:09;;;;;;;25.60;5.85;;;10.60;99.90;;;;;;4988268;28;20204;-82
2023/05/11 04:03:46;;;;;;;20.00;5.97;;;10.30;99.90;;;;;;5006223;28;20514;-81
2023/05/11 04:06:12;;;;;;;32.85;5.53;;;10.60;99.90;;;;;;4990453;28;20309;-83
2023/05/11 04:08:38;;;;;;;18.23;5.80;;;10.60;99.90;;;;;;4998821;28;20071;-82
2023/05/11 04:11:03;;;;;;;34.55;5.25;;;10.60;99.90;;;;;;4988045;28;20060;-81
2023/05/11 04:13:29;;;;;;;22.65;5.20;;;10.60;99.90;;;;;;4988304;28;20054;-82
2023/05/11 04:15:55;;;;;;;25.25;5.00;;;10.60;99.90;;;;;;4993431;28;20442;-83
2023/05/11 04:18:20;;;;;;;45.80;5.60;;;10.60;99.90;;;;;;4991373;28;20136;-83
2023/05/11 04:20:46;;;;;;;34.70;5.20;;;10.50;99.90;;;;;;4993448;28;20077;-82
2023/05/11 04:23:12;;;;;;;19.85;4.95;;;10.50;99.90;;;;;;4975473;28;20057;-83
2023/05/11 04:25:37;;;;;;;14.95;4.65;;;10.50;99.90;;;;;;4992780;28;20056;-77
2023/05/11 04:28:03;;;;;;;27.45;5.10;;;10.50;99.90;;;;;;4993641;28;20050;-77
2023/05/11 04:30:29;;;;;;;30.42;5.50;;;10.50;99.90;;;;;;4992047;28;20057;-77
2023/05/11 04:32:55;;;;;;;31.67;6.30;;;10.50;99.90;;;;;;4990799;28;20045;-77
2023/05/11 04:35:21;;;;;;;26.15;6.25;;;10.50;99.90;;;;;;4989978;28;20131;-77
2023/05/11 04:37:46;;;;;;;16.42;6.25;;;10.60;99.90;;;;;;4993689;28;20128;-77
2023/05/11 04:40:12;;;;;;;34.50;6.93;;;10.40;99.90;;;;;;4964475;28;20054;-77
2023/05/11 04:42:38;;;;;;;12.60;6.72;;;10.50;99.90;;;;;;4968474;28;20120;-77
2023/05/11 04:45:04;;;;;;;25.30;7.47;;;10.70;99.90;;;;;;4967271;28;20092;-77
2023/05/11 04:47:30;;;;;;;13.05;7.40;;;10.50;99.90;;;;;;4985723;28;20044;-76
2023/05/11 04:49:55;;;;;;;14.70;7.32;;;10.50;99.90;;;;;;4987448;28;20054;-76
2023/05/11 04:52:21;;;;;;;17.35;8.25;;;10.50;99.90;;;;;;4988131;28;20469;-77
2023/05/11 04:54:47;;;;;;;34.30;8.52;;;10.50;99.90;;;;;;4987679;28;20048;-77
2023/05/11 04:57:12;;;;;;;34.92;9.18;;;10.50;99.90;;;;;;4993803;28;20149;-77
2023/05/11 04:59:38;;;;;;;21.55;8.73;;;10.80;99.90;;;;;;4993378;28;20487;-76
2023/05/11 05:02:04;;;;;;;20.85;9.27;;;10.50;99.90;;;;;;4994409;28;20482;-77
2023/05/11 05:04:30;;;;;;;24.23;10.25;;;10.50;99.90;;;;;;4978618;28;20061;-81
2023/05/11 05:06:55;;;;;;;18.42;9.70;;;10.50;99.90;;;;;;4991419;28;20095;-83
2023/05/11 05:09:21;;;;;;;18.33;10.80;;;10.50;99.90;;;;;;4988329;28;20097;-82
2023/05/11 05:11:47;;;;;;;22.80;11.82;;;10.50;99.90;;;;;;4993253;28;20050;-82
2023/05/11 05:14:12;;;;;;;24.65;11.30;;;10.50;99.90;;;;;;4989149;28;20799;-82
2023/05/11 05:16:38;;;;;;;24.08;11.80;;;10.50;99.90;;;;;;4990978;28;20050;-77
2023/05/11 05:19:04;;;;;;;23.35;13.40;;;10.50;99.90;;;;;;4991105;28;20077;-77
2023/05/11 05:21:31;;;;;;;30.27;13.13;;;10.60;99.90;;;;;;4993275;28;20037;-77
2023/05/11 05:23:57;;;;;;;23.33;12.43;;;10.60;99.90;;;;;;4993161;28;20063;-77
2023/05/11 05:26:22;;;;;;;39.03;15.07;;;10.60;99.90;;;;;;4992451;28;20050;-77
2023/05/11 05:28:48;;;;;;;26.92;13.32;;;10.60;99.90;;;;;;4992885;28;20509;-77
2023/05/11 05:31:14;;;;;;;40.20;14.35;;;10.60;99.90;;;;;;4992183;28;20422;-77
2023/05/11 05:33:40;;;;;;;27.67;14.52;;;10.60;99.90;;;;;;4999053;28;20046;-76
2023/05/11 05:36:06;;;;;;;28.60;13.70;;;10.60;99.90;;;;;;4997957;28;20046;-77
2023/05/11 05:38:31;;;;;;;27.50;14.00;;;10.60;99.90;;;;;;5002789;28;20769;-77
2023/05/11 05:40:58;;;;;;;40.15;14.75;;;10.60;99.90;;;;;;5005652;28;20038;-77
2023/05/11 05:43:24;;;;;;;33.10;15.40;;;10.60;99.90;;;;;;4987139;28;21226;-77
2023/05/11 05:45:50;;;;;;;43.28;16.10;;;10.70;99.90;;;;;;4996836;28;20054;-77
2023/05/11 05:48:15;;;;;;;35.22;16.40;;;10.70;99.90;;;;;;5000201;28;20066;-77
2023/05/11 05:50:41;;;;;;;36.50;16.70;;;10.70;99.90;;;;;;5002341;28;20037;-77
2023/05/11 05:53:07;;;;;;;38.50;17.10;;;10.70;99.90;;;;;;5000867;28;20045;-77
2023/05/11 05:55:32;;;;;;;41.95;16.48;;;10.70;99.90;;;;;;5007941;28;20509;-78
2023/05/11 05:57:58;;;;;;;41.45;17.23;;;10.70;99.90;;;;;;5003893;28;20034;-77
2023/05/11 06:00:24;;;;;;;32.72;14.63;;;10.80;99.90;;;;;;5001423;28;20125;-77
2023/05/11 06:02:50;;;;;;;35.65;15.45;;;10.80;99.90;;;;;;5000562;28;20042;-78
2023/05/11 06:05:15;;;;;;;34.90;15.13;;;10.80;99.90;;;;;;4999371;28;20058;-78
2023/05/11 06:07:41;;;;;;;32.70;15.18;;;10.80;99.90;;;;;;5002964;28;20525;-78
2023/05/11 06:10:07;;;;;;;41.15;15.27;;;10.80;99.90;;;;;;4985883;28;20050;-78
2023/05/11 06:12:33;;;;;;;39.40;15.88;;;10.80;99.90;;;;;;4999756;28;20050;-78
2023/05/11 06:14:58;;;;;;;37.85;15.90;;;10.80;99.90;;;;;;5004212;28;20038;-78
2023/05/11 06:17:24;;;;;;;46.47;16.58;;;10.80;99.90;;;;;;4999199;28;20053;-78
2023/05/11 06:19:50;;;;;;;41.05;16.85;;;10.90;99.90;;;;;;4987715;28;20061;-78
2023/05/11 06:22:16;;;;;;;40.40;16.95;;;10.90;99.90;;;;;;4981770;28;20050;-77
2023/05/11 06:24:41;;;;;;;36.55;15.40;;;10.90;99.90;;;;;;4999072;28;20759;-82
2023/05/11 06:27:07;;;;;;;39.50;15.63;;;10.90;99.90;;;;;;4984652;28;20049;-82
2023/05/11 06:29:33;;;;;;;39.67;16.23;;;11.00;99.90;;;;;;4982395;28;20093;-82
2023/05/11 06:31:58;;;;;;;36.85;14.32;;;11.00;99.90;;;;;;4998707;28;20045;-82
2023/05/11 06:34:24;;;;;;;32.90;14.70;;;11.00;99.90;;;;;;4994263;28;20038;-81
2023/05/11 06:36:50;;;;;;;34.40;14.52;;;11.00;99.90;;;;;;4983688;28;20517;-82
2023/05/11 06:39:16;;;;;;;34.42;15.50;;;11.00;99.90;;;;;;4999600;28;20044;-82
2023/05/11 06:41:42;;;;;;;28.08;13.38;;;11.30;99.90;;;;;;4999576;28;20125;-82
2023/05/11 06:44:07;;;;;;;29.50;13.65;;;11.00;99.90;;;;;;4996619;28;20074;-82
2023/05/11 06:46:33;;;;;;;26.30;12.73;;;11.00;99.90;;;;;;4979263;28;20058;-78
2023/05/11 06:48:59;;;;;;;26.60;13.02;;;11.00;99.90;;;;;;4983058;28;20498;-77
2023/05/11 06:51:25;;;;;;;31.13;13.70;;;11.00;99.90;;;;;;4998192;28;20042;-78
2023/05/11 06:53:51;;;;;;;28.17;12.98;;;11.00;99.90;;;;;;4996995;28;20060;-78
2023/05/11 06:56:20;;;;;;;28.95;13.27;;;11.00;99.90;;;;;;4981659;28;20100;-78
2023/05/11 06:58:46;;;;;;;26.92;13.10;;;11.00;99.90;;;;;;4981187;28;20073;-79
2023/05/11 07:01:12;;;;;;;28.40;14.40;;;11.10;99.90;;;;;;4997774;28;20514;-78
2023/05/11 07:03:37;;;;;;;28.10;14.32;;;11.10;99.90;;;;;;4992873;28;20136;-79
2023/05/11 07:06:04;;;;;;;26.98;13.07;;;11.10;99.90;;;;;;4995603;28;20506;-77
2023/05/11 07:08:29;;;;;;;23.75;12.55;;;11.00;99.90;;;;;;4996678;28;20050;-78
2023/05/11 07:10:55;;;;;;;26.85;12.75;;;11.10;99.90;;;;;;4998526;28;20049;-78
2023/05/11 07:13:21;;;;;;;25.02;12.50;;;11.10;99.90;;;;;;4997142;28;20589;-78
2023/05/11 07:15:48;;;;;;;25.80;12.35;;;11.10;99.90;;;;;;4999637;28;20050;-78
2023/05/11 07:18:14;;;;;;;24.52;13.88;;;11.20;99.90;;;;;;5003643;28;20053;-78
2023/05/11 07:20:40;;;;;;;25.75;13.55;;;11.20;99.90;;;;;;5000403;28;20117;-78
2023/05/11 07:23:06;;;;;;;25.80;13.20;;;11.20;99.90;;;;;;4996548;28;20288;-78
2023/05/11 07:25:31;;;;;;;24.25;12.77;;;11.30;99.90;;;;;;5002448;28;20076;-78
2023/05/11 07:27:57;;;;;;;24.35;11.85;;;11.30;99.90;;;;;;4997859;28;20045;-77
2023/05/11 07:30:24;;;;;;;22.45;12.38;;;11.30;99.90;;;;;;4983900;28;20061;-77
2023/05/11 07:32:49;;;;;;;23.70;12.57;;;11.30;99.90;;;;;;5000909;28;20058;-78
2023/05/11 07:35:15;;;;;;;24.38;12.60;;;11.40;99.90;;;;;;5000326;28;20492;-78
2023/05/11 07:37:41;;;;;;;21.92;12.40;;;11.40;99.90;;;;;;4999634;28;20042;-78
2023/05/11 07:40:07;;;;;;;22.40;12.77;;;11.40;99.90;;;;;;4998842;28;20053;-77
2023/05/11 07:42:33;;;;;;;19.50;10.40;;;11.40;99.90;;;;;;4981176;28;20527;-78
2023/05/11 07:44:59;;;;;;;24.83;12.75;;;11.70;99.90;;;;;;4997351;28;20042;-77
2023/05/11 07:47:24;;;;;;;20.13;10.95;;;11.50;99.90;;;;;;4999921;28;20461;-78
2023/05/11 07:49:50;;;;;;;26.13;11.82;;;11.60;99.90;;;;;;5000931;28;20064;-78
2023/05/11 07:52:16;;;;;;;21.65;10.13;;;11.60;99.90;;;;;;4995446;28;20117;-77
2023/05/11 07:54:43;;;;;;;17.58;9.50;;;11.60;99.90;;;;;;4999855;28;20089;-78
2023/05/11 07:57:12;;;;;;;16.40;9.50;;;11.70;99.90;;;;;;4982084;28;20057;-78
2023/05/11 07:59:39;;;;;;;17.83;9.48;;;11.70;99.90;;;;;;4998483;28;20712;-78
2023/05/11 08:02:07;;;;;;;16.13;9.10;;;11.70;99.90;;;;;;5000238;28;20124;-78
2023/05/11 08:04:33;;;;;;;14.85;8.48;;;11.80;99.90;;;;;;4980878;28;20057;-77
2023/05/11 08:06:59;;;;;;;16.95;8.98;;;11.80;99.90;;;;;;4982747;28;20498;-78
2023/05/11 08:09:25;;;;;;;14.45;7.63;;;11.80;99.90;;;;;;4976152;28;20079;-77
2023/05/11 08:11:50;;;;;;;14.85;7.97;;;11.80;99.90;;;;;;4999453;28;20085;-78
2023/05/11 08:14:16;;;;;;;16.75;8.77;;;12.10;99.90;;;;;;5001551;28;20125;-78
2023/05/11 08:16:42;;;;;;;14.95;8.10;;;11.90;99.90;;;;;;5000793;28;20050;-78
2023/05/11 08:19:08;;;;;;;15.35;8.55;;;11.90;99.90;;;;;;5000241;28;20081;-78
2023/05/11 08:21:34;;;;;;;19.95;9.80;;;12.00;99.90;;;;;;4995505;28;20050;-78
2023/05/11 08:24:00;;;;;;;14.90;8.60;;;12.00;99.90;;;;;;4995096;28;20049;-81
2023/05/11 08:26:26;;;;;;;16.98;8.35;;;12.00;99.90;;;;;;4999492;28;20082;-81
2023/05/11 08:28:51;;;;;;;16.08;8.98;;;12.00;99.90;;;;;;5005208;28;20054;-81
2023/05/11 08:31:18;;;;;;;18.10;9.50;;;12.00;99.90;;;;;;4998267;28;20495;-81
2023/05/11 08:33:45;;;;;;;15.82;8.80;;;12.10;99.90;;;;;;4984809;28;20049;-81
2023/05/11 08:36:14;;;;;;;16.98;9.63;;;12.10;99.90;;;;;;4978042;28;20100;-80
2023/05/11 08:38:40;;;;;;;15.98;8.63;;;12.10;99.90;;;;;;4986594;28;20458;-81
2023/05/11 08:41:06;;;;;;;18.73;8.63;;;12.10;99.90;;;;;;5003724;28;20053;-81
2023/05/11 08:43:34;;;;;;;20.67;9.00;;;12.10;99.90;;;;;;4987492;28;20160;-78
2023/05/11 08:46:06;;;;;;;17.33;9.65;;;12.10;99.90;;;;;;4981747;28;20054;-81
2023/05/11 08:48:32;;;;;;;18.13;9.77;;;12.10;99.90;;;;;;4977175;28;20126;-80
2023/05/11 08:50:58;;;;;;;19.55;10.25;;;12.10;99.90;;;;;;4991983;28;20045;-81
2023/05/11 08:53:24;;;;;;;18.90;10.63;;;12.10;99.90;;;;;;5003461;28;20049;-80
2023/05/11 08:55:50;;;;;;;15.48;9.57;;;12.10;99.90;;;;;;5000471;28;20129;-81
2023/05/11 08:58:21;;;;;;;17.75;10.20;;;12.20;99.90;;;;;;4986092;28;20073;-80
2023/05/11 09:00:48;;;;;;;20.63;11.20;;;12.20;99.90;;;;;;4979566;28;20034;-81
2023/05/11 09:03:21;;;;;;;19.60;10.68;;;12.20;99.90;;;;;;5005170;28;20046;-81
2023/05/11 09:05:48;;;;;;;21.50;10.40;;;12.20;99.90;;;;;;4990287;28;20403;-80
2023/05/11 09:08:16;;;;;;;18.55;10.50;;;12.30;99.90;;;;;;5003216;28;20418;-80
2023/05/11 09:10:43;;;;;;;17.73;10.38;;;12.30;99.90;;;;;;4997377;28;20136;-80
2023/05/11 09:13:10;;;;;;;18.00;10.90;;;12.30;99.90;;;;;;4985377;28;20060;-80
2023/05/11 09:15:35;;;;;;;19.70;12.23;;;12.30;99.90;;;;;;4985053;28;20100;-80
2023/05/11 09:18:02;;;;;;;20.05;12.38;;;12.40;99.90;;;;;;4995114;28;20058;-81
2023/05/11 09:20:32;;;;;;;19.77;12.15;;;12.40;99.90;;;;;;4996938;28;20077;-80
2023/05/11 09:22:58;;;;;;;20.40;11.80;;;12.40;99.90;;;;;;5003368;28;20074;-80
2023/05/11 09:25:26;;;;;;;19.65;12.15;;;12.40;99.90;;;;;;4973230;28;20073;-80
2023/05/11 09:27:52;;;;;;;20.23;12.98;;;12.50;99.90;;;;;;4990592;28;20409;-80
2023/05/11 09:30:22;;;;;;;19.58;12.27;;;12.50;99.90;;;;;;5002884;28;20491;-80
2023/05/11 09:33:01;;;;;;;20.73;12.77;;;12.50;99.90;;;;;;4979917;28;20053;-80
2023/05/11 09:35:28;;;;;;;21.10;12.30;;;12.50;99.90;;;;;;4971369;28;20037;-79
2023/05/11 09:38:11;;;;;;;18.40;12.23;;;12.60;99.90;;;;;;5003865;28;20077;-80
2023/05/11 09:40:39;;;;;;;18.17;11.30;;;12.60;99.90;;;;;;4981011;28;20053;-79
2023/05/11 09:43:29;;;;;;;21.05;12.15;;;12.60;99.90;;;;;;4994051;28;20050;-80
2023/05/11 09:45:56;;;;;;;17.73;11.95;;;12.70;99.90;;;;;;5004289;28;20053;-78
2023/05/11 09:48:28;;;;;;;18.83;10.73;;;12.70;99.90;;;;;;5004912;28;20038;-79
2023/05/11 09:51:05;;;;;;;19.65;12.05;;;12.70;99.90;;;;;;5003343;28;20171;-80
2023/05/11 09:53:37;;;;;;;18.85;10.75;;;12.70;99.90;;;;;;4995907;28;20100;-79
2023/05/11 09:56:04;;;;;;;18.45;11.50;;;12.80;99.90;;;;;;4979261;28;20084;-79
2023/05/11 09:58:53;;;;;;;17.75;11.52;;;12.80;99.90;;;;;;4973153;28;20475;-80
2023/05/11 10:01:31;;;;;;;17.90;10.73;;;12.90;99.90;;;;;;5001494;28;20058;-79
2023/05/11 10:03:58;;;;;;;19.73;11.25;;;12.90;99.90;;;;;;5000245;28;20403;-80
2023/05/11 10:06:24;;;;;;;17.85;11.10;;;12.90;99.90;;;;;;5005104;28;20069;-80
2023/05/11 10:08:51;;;;;;;16.73;11.18;;;13.00;99.90;;;;;;5005791;28;20056;-79
2023/05/11 10:11:21;;;;;;;17.92;11.73;;;13.00;99.90;;;;;;4996482;28;20056;-80
2023/05/11 10:13:47;;;;;;;17.33;10.95;;;13.00;99.90;;;;;;4998442;28;20042;-80
2023/05/11 10:16:17;;;;;;;18.35;11.60;;;13.00;99.90;;;;;;4995254;28;20050;-79
2023/05/11 10:18:43;;;;;;;16.48;11.27;;;13.00;99.90;;;;;;4998234;28;20096;-80
2023/05/11 10:21:11;;;;;;;16.02;10.13;;;13.10;99.90;;;;;;4993000;28;20049;-79
2023/05/11 10:23:37;;;;;;;15.10;9.68;;;13.10;99.90;;;;;;4999883;28;20050;-79
2023/05/11 10:26:03;;;;;;;18.50;10.27;;;13.10;99.90;;;;;;4987759;28;20046;-79
2023/05/11 10:28:29;;;;;;;13.73;8.68;;;13.20;99.90;;;;;;4991202;28;20060;-79
2023/05/11 10:30:56;;;;;;;14.35;9.50;;;13.20;99.90;;;;;;4989464;28;20065;-80
2023/05/11 10:33:22;;;;;;;14.00;8.55;;;13.30;99.90;;;;;;5001910;28;20739;-80
2023/05/11 10:35:52;;;;;;;15.60;9.63;;;13.40;99.90;;;;;;5002285;28;20073;-80
2023/05/11 10:38:20;;;;;;;16.33;9.13;;;13.40;99.90;;;;;;4997626;28;20034;-79
2023/05/11 10:40:47;;;;;;;15.10;9.57;;;13.60;99.90;;;;;;4983251;28;20045;-79
2023/05/11 10:43:37;;;;;;;14.93;8.93;;;13.50;99.90;;;;;;4986490;28;20061;-80
2023/05/11 10:46:02;;;;;;;14.52;9.63;;;13.50;99.90;;;;;;4986455;28;20423;-79
2023/05/11 10:48:46;;;;;;;14.50;9.57;;;13.60;99.90;;;;;;5007633;28;20037;-80
2023/05/11 10:51:30;;;;;;;14.90;9.75;;;13.60;99.90;;;;;;4997705;28;20050;-79
2023/05/11 10:54:32;;;;;;;16.23;9.55;;;13.70;99.90;;;;;;4988089;28;20054;-79
2023/05/11 10:57:56;;;;;;;15.23;9.63;;;13.70;99.90;;;;;;4990436;28;20125;-78
2023/05/11 11:00:34;;;;;;;16.02;10.55;;;13.80;99.90;;;;;;4969504;28;20042;-79
2023/05/11 11:03:11;;;;;;;14.00;9.85;;;13.90;99.90;;;;;;4985679;28;20038;-78
2023/05/11 11:05:37;;;;;;;15.27;9.93;;;13.90;99.90;;;;;;5004990;28;20058;-78
2023/05/11 11:08:04;;;;;;;16.85;9.02;;;14.00;99.90;;;;;;5008392;28;20084;-78
2023/05/11 11:10:37;;;;;;;15.88;8.60;;;14.10;99.90;;;;;;5007340;28;20104;-79
2023/05/11 11:13:10;;;;;;;14.13;8.95;;;14.10;99.90;;;;;;5006109;28;20042;-79
2023/05/11 11:15:57;;;;;;;11.90;8.27;;;14.20;99.90;;;;;;4996266;28;20131;-79
2023/05/11 11:18:33;;;;;;;13.30;7.68;;;14.20;99.90;;;;;;5000179;28;20475;-79
2023/05/11 11:21:00;;;;;;;12.48;7.60;;;14.30;99.90;;;;;;5005610;28;20058;-79
2023/05/11 11:23:44;;;;;;;11.07;7.22;;;14.30;99.90;;;;;;4998726;28;20038;-78
2023/05/11 11:26:14;;;;;;;11.60;7.07;;;14.40;99.90;;;;;;4988728;28;20051;-77
2023/05/11 11:29:00;;;;;;;10.63;7.53;;;14.40;99.90;;;;;;5005763;28;20056;-77
2023/05/11 11:31:31;;;;;;;10.98;6.95;;;14.50;99.90;;;;;;4995098;28;20052;-78
2023/05/11 11:34:17;;;;;;;10.63;6.57;;;14.40;99.90;;;;;;4987006;28;20050;-79
2023/05/11 11:36:57;;;;;;;11.77;5.85;;;14.50;99.90;;;;;;4999559;28;20301;-79
2023/05/11 11:39:25;;;;;;;8.43;5.50;;;14.60;99.90;;;;;;4998397;28;20406;-78
2023/05/11 11:42:00;;;;;;;9.02;6.25;;;14.60;99.90;;;;;;4997553;28;20058;-77
2023/05/11 11:44:26;;;;;;;9.93;5.70;;;14.70;99.90;;;;;;4998484;28;20041;-78
2023/05/11 11:47:20;;;;;;;9.27;5.60;;;14.80;99.90;;;;;;4982692;28;20467;-81
2023/05/11 11:49:54;;;;;;;11.75;5.25;;;14.90;99.90;;;;;;4994240;28;20077;-79
2023/05/11 11:52:27;;;;;;;9.48;5.20;;;14.90;99.90;;;;;;4989274;28;20072;-78
2023/05/11 11:54:58;;;;;;;8.35;4.93;;;15.00;99.90;;;;;;4988180;28;20045;-78
2023/05/11 11:57:33;;;;;;;6.82;4.35;;;15.00;99.90;;;;;;4988584;28;20131;-80
2023/05/11 12:00:00;;;;;;;7.10;4.20;;;15.00;99.90;;;;;;5002247;28;20049;-77
2023/05/11 12:02:26;;;;;;;7.47;4.50;;;15.00;99.90;;;;;;4999602;28;20670;-78
2023/05/11 12:05:21;;;;;;;10.05;4.53;;;15.00;99.90;;;;;;4998021;28;20057;-77
2023/05/11 12:07:51;;;;;;;7.18;4.60;;;15.00;99.90;;;;;;5018268;28;20038;-78
2023/05/11 12:10:21;;;;;;;7.90;4.77;;;15.00;99.90;;;;;;4997202;28;20454;-78
2023/05/11 12:12:48;;;;;;;9.13;4.93;;;15.00;99.90;;;;;;4994403;28;20068;-77
2023/05/11 12:15:23;;;;;;;6.75;4.32;;;15.00;99.90;;;;;;4988830;28;20574;-78
2023/05/11 12:17:50;;;;;;;7.85;4.65;;;15.00;99.90;;;;;;4983387;28;20128;-79
2023/05/11 12:20:18;;;;;;;7.15;4.15;;;15.10;99.90;;;;;;4986003;28;20056;-77
2023/05/11 12:22:45;;;;;;;7.40;4.65;;;15.10;99.90;;;;;;4989651;28;20069;-78
2023/05/11 12:25:13;;;;;;;7.57;4.60;;;15.10;99.90;;;;;;4991977;28;20042;-76
2023/05/11 12:28:02;;;;;;;8.27;5.30;;;15.20;99.90;;;;;;4987968;28;20043;-77
2023/05/11 12:30:33;;;;;;;5.22;3.53;;;15.20;99.90;;;;;;4992876;28;20119;-76
2023/05/11 12:33:02;;;;;;;7.38;3.80;;;15.20;99.90;;;;;;4989670;28;20054;-77
2023/05/11 12:35:30;;;;;;;8.55;4.72;;;15.20;99.90;;;;;;5000567;28;20818;-76
2023/05/11 12:37:58;;;;;;;6.32;4.63;;;15.30;99.90;;;;;;4992253;28;20046;-76
2023/05/11 12:40:24;;;;;;;10.05;5.10;;;15.30;99.90;;;;;;4999935;28;20049;-78
2023/05/11 12:42:57;;;;;;;8.27;4.93;;;15.30;99.90;;;;;;4996708;28;21861;-78